sensor_id;sensor_type;location;lat;lon;timestamp;P1;durP1;ratioP1;P2;durP2;ratioP2
39404;SDS011;25121;51.090;17.038;2023-02-10T00:01:19;34.45;;;19.30;;
39404;SDS011;25121;51.090;17.038;2023-02-10T00:02:46;35.85;;;19.52;;
39404;SDS011;25121;51.090;17.038;2023-02-10T00:04:10;36.45;;;20.23;;
39404;SDS011;25121;51.090;17.038;2023-02-10T00:05:33;36.72;;;19.25;;
39404;SDS011;25121;51.090;17.038;2023-02-10T00:07:03;33.60;;;19.52;;
39404;SDS011;25121;51.090;17.038;2023-02-10T00:08:28;35.13;;;19.40;;
39404;SDS011;25121;51.090;17.038;2023-02-10T00:09:49;34.33;;;18.00;;
39404;SDS011;25121;51.090;17.038;2023-02-10T00:11:13;34.88;;;18.88;;
39404;SDS011;25121;51.090;17.038;2023-02-10T00:12:38;32.88;;;18.90;;
39404;SDS011;25121;51.090;17.038;2023-02-10T00:14:00;35.88;;;19.20;;
39404;SDS011;25121;51.090;17.038;2023-02-10T00:15:23;33.85;;;19.00;;
39404;SDS011;25121;51.090;17.038;2023-02-10T00:18:10;38.55;;;18.40;;
39404;SDS011;25121;51.090;17.038;2023-02-10T00:19:32;32.17;;;18.27;;
39404;SDS011;25121;51.090;17.038;2023-02-10T00:21:05;33.42;;;19.88;;
39404;SDS011;25121;51.090;17.038;2023-02-10T00:22:27;33.92;;;18.95;;
39404;SDS011;25121;51.090;17.038;2023-02-10T00:23:50;36.20;;;18.70;;
39404;SDS011;25121;51.090;17.038;2023-02-10T00:25:11;33.58;;;18.70;;
39404;SDS011;25121;51.090;17.038;2023-02-10T00:26:38;34.40;;;18.83;;
39404;SDS011;25121;51.090;17.038;2023-02-10T00:28:00;36.33;;;19.88;;
39404;SDS011;25121;51.090;17.038;2023-02-10T00:29:23;33.65;;;18.48;;
39404;SDS011;25121;51.090;17.038;2023-02-10T00:30:52;36.20;;;19.70;;
39404;SDS011;25121;51.090;17.038;2023-02-10T00:32:18;36.75;;;17.75;;
39404;SDS011;25121;51.090;17.038;2023-02-10T00:33:41;33.42;;;19.23;;
39404;SDS011;25121;51.090;17.038;2023-02-10T00:35:05;37.35;;;18.85;;
39404;SDS011;25121;51.090;17.038;2023-02-10T00:36:28;30.88;;;17.85;;
39404;SDS011;25121;51.090;17.038;2023-02-10T00:37:54;36.85;;;20.65;;
39404;SDS011;25121;51.090;17.038;2023-02-10T00:39:16;34.58;;;18.38;;
39404;SDS011;25121;51.090;17.038;2023-02-10T00:40:39;30.02;;;17.92;;
39404;SDS011;25121;51.090;17.038;2023-02-10T00:42:03;30.08;;;17.25;;
39404;SDS011;25121;51.090;17.038;2023-02-10T00:43:29;33.28;;;18.92;;
39404;SDS011;25121;51.090;17.038;2023-02-10T00:46:20;34.45;;;17.48;;
39404;SDS011;25121;51.090;17.038;2023-02-10T00:47:43;31.20;;;18.00;;
39404;SDS011;25121;51.090;17.038;2023-02-10T00:49:09;30.42;;;17.35;;
39404;SDS011;25121;51.090;17.038;2023-02-10T00:50:32;34.83;;;18.70;;
39404;SDS011;25121;51.090;17.038;2023-02-10T00:51:56;35.42;;;17.48;;
39404;SDS011;25121;51.090;17.038;2023-02-10T00:53:19;29.90;;;18.80;;
39404;SDS011;25121;51.090;17.038;2023-02-10T00:54:41;31.02;;;17.88;;
39404;SDS011;25121;51.090;17.038;2023-02-10T00:56:04;33.33;;;18.33;;
39404;SDS011;25121;51.090;17.038;2023-02-10T00:57:31;29.15;;;18.08;;
39404;SDS011;25121;51.090;17.038;2023-02-10T00:58:54;33.63;;;18.75;;
39404;SDS011;25121;51.090;17.038;2023-02-10T01:00:15;33.37;;;18.10;;
39404;SDS011;25121;51.090;17.038;2023-02-10T01:01:38;32.92;;;18.30;;
39404;SDS011;25121;51.090;17.038;2023-02-10T01:03:07;31.77;;;18.60;;
39404;SDS011;25121;51.090;17.038;2023-02-10T01:04:30;30.77;;;17.45;;
39404;SDS011;25121;51.090;17.038;2023-02-10T01:05:55;29.38;;;18.17;;
39404;SDS011;25121;51.090;17.038;2023-02-10T01:07:17;30.98;;;18.63;;
39404;SDS011;25121;51.090;17.038;2023-02-10T01:08:40;32.45;;;18.05;;
39404;SDS011;25121;51.090;17.038;2023-02-10T01:10:03;30.98;;;18.27;;
39404;SDS011;25121;51.090;17.038;2023-02-10T01:11:26;35.80;;;18.83;;
39404;SDS011;25121;51.090;17.038;2023-02-10T01:12:50;32.67;;;18.52;;
39404;SDS011;25121;51.090;17.038;2023-02-10T01:14:13;35.97;;;19.83;;
39404;SDS011;25121;51.090;17.038;2023-02-10T01:15:36;31.65;;;18.73;;
39404;SDS011;25121;51.090;17.038;2023-02-10T01:17:01;30.00;;;17.20;;
39404;SDS011;25121;51.090;17.038;2023-02-10T01:18:25;32.42;;;18.77;;
39404;SDS011;25121;51.090;17.038;2023-02-10T01:19:47;35.05;;;19.42;;
39404;SDS011;25121;51.090;17.038;2023-02-10T01:21:12;32.13;;;19.27;;
39404;SDS011;25121;51.090;17.038;2023-02-10T01:22:35;31.92;;;19.52;;
39404;SDS011;25121;51.090;17.038;2023-02-10T01:24:00;28.85;;;17.80;;
39404;SDS011;25121;51.090;17.038;2023-02-10T01:25:24;35.42;;;18.75;;
39404;SDS011;25121;51.090;17.038;2023-02-10T01:26:45;34.28;;;19.13;;
39404;SDS011;25121;51.090;17.038;2023-02-10T01:28:09;39.33;;;19.70;;
39404;SDS011;25121;51.090;17.038;2023-02-10T01:29:32;31.75;;;19.15;;
39404;SDS011;25121;51.090;17.038;2023-02-10T01:30:55;31.55;;;19.35;;
39404;SDS011;25121;51.090;17.038;2023-02-10T01:32:16;36.20;;;20.38;;
39404;SDS011;25121;51.090;17.038;2023-02-10T01:33:40;32.78;;;18.92;;
39404;SDS011;25121;51.090;17.038;2023-02-10T01:35:03;30.52;;;18.98;;
39404;SDS011;25121;51.090;17.038;2023-02-10T01:36:28;29.40;;;18.75;;
39404;SDS011;25121;51.090;17.038;2023-02-10T01:37:51;33.92;;;19.10;;
39404;SDS011;25121;51.090;17.038;2023-02-10T01:39:12;37.03;;;19.88;;
39404;SDS011;25121;51.090;17.038;2023-02-10T01:40:36;35.60;;;20.27;;
39404;SDS011;25121;51.090;17.038;2023-02-10T01:41:58;35.60;;;19.63;;
39404;SDS011;25121;51.090;17.038;2023-02-10T01:43:22;33.00;;;18.77;;
39404;SDS011;25121;51.090;17.038;2023-02-10T01:46:35;33.90;;;19.63;;
39404;SDS011;25121;51.090;17.038;2023-02-10T01:47:58;32.28;;;18.48;;
39404;SDS011;25121;51.090;17.038;2023-02-10T01:49:21;37.13;;;21.60;;
39404;SDS011;25121;51.090;17.038;2023-02-10T01:50:47;31.75;;;18.73;;
39404;SDS011;25121;51.090;17.038;2023-02-10T01:52:15;34.10;;;18.75;;
39404;SDS011;25121;51.090;17.038;2023-02-10T01:53:39;36.38;;;19.80;;
39404;SDS011;25121;51.090;17.038;2023-02-10T01:55:04;35.00;;;19.45;;
39404;SDS011;25121;51.090;17.038;2023-02-10T01:56:31;36.25;;;18.88;;
39404;SDS011;25121;51.090;17.038;2023-02-10T01:57:54;38.13;;;19.85;;
39404;SDS011;25121;51.090;17.038;2023-02-10T01:59:17;33.17;;;19.92;;
39404;SDS011;25121;51.090;17.038;2023-02-10T02:00:41;33.55;;;18.85;;
39404;SDS011;25121;51.090;17.038;2023-02-10T02:02:03;33.83;;;18.83;;
39404;SDS011;25121;51.090;17.038;2023-02-10T02:03:29;32.78;;;18.70;;
39404;SDS011;25121;51.090;17.038;2023-02-10T02:04:52;30.85;;;18.67;;
39404;SDS011;25121;51.090;17.038;2023-02-10T02:06:15;32.00;;;19.40;;
39404;SDS011;25121;51.090;17.038;2023-02-10T02:07:38;31.63;;;18.25;;
39404;SDS011;25121;51.090;17.038;2023-02-10T02:09:03;32.95;;;19.35;;
39404;SDS011;25121;51.090;17.038;2023-02-10T02:10:31;36.47;;;18.40;;
39404;SDS011;25121;51.090;17.038;2023-02-10T02:12:05;32.70;;;18.08;;
39404;SDS011;25121;51.090;17.038;2023-02-10T02:15:39;34.45;;;19.33;;
39404;SDS011;25121;51.090;17.038;2023-02-10T02:17:11;33.42;;;18.88;;
39404;SDS011;25121;51.090;17.038;2023-02-10T02:18:42;34.03;;;20.60;;
39404;SDS011;25121;51.090;17.038;2023-02-10T02:20:18;30.88;;;18.13;;
39404;SDS011;25121;51.090;17.038;2023-02-10T02:22:32;29.98;;;18.02;;
39404;SDS011;25121;51.090;17.038;2023-02-10T02:24:14;31.35;;;19.00;;
39404;SDS011;25121;51.090;17.038;2023-02-10T02:28:02;32.92;;;18.92;;
39404;SDS011;25121;51.090;17.038;2023-02-10T02:29:39;37.13;;;20.30;;
39404;SDS011;25121;51.090;17.038;2023-02-10T02:33:26;31.70;;;17.40;;
39404;SDS011;25121;51.090;17.038;2023-02-10T02:34:53;35.03;;;18.58;;
39404;SDS011;25121;51.090;17.038;2023-02-10T02:36:23;33.30;;;18.80;;
39404;SDS011;25121;51.090;17.038;2023-02-10T02:37:49;34.65;;;19.13;;
39404;SDS011;25121;51.090;17.038;2023-02-10T02:39:13;31.92;;;18.90;;
39404;SDS011;25121;51.090;17.038;2023-02-10T02:40:35;35.00;;;20.35;;
39404;SDS011;25121;51.090;17.038;2023-02-10T02:42:07;33.92;;;19.75;;
39404;SDS011;25121;51.090;17.038;2023-02-10T02:43:36;31.27;;;19.30;;
39404;SDS011;25121;51.090;17.038;2023-02-10T02:45:02;34.50;;;19.42;;
39404;SDS011;25121;51.090;17.038;2023-02-10T02:46:32;32.03;;;19.98;;
39404;SDS011;25121;51.090;17.038;2023-02-10T02:48:10;31.38;;;18.17;;
39404;SDS011;25121;51.090;17.038;2023-02-10T02:49:45;32.20;;;18.80;;
39404;SDS011;25121;51.090;17.038;2023-02-10T02:51:13;36.03;;;19.83;;
39404;SDS011;25121;51.090;17.038;2023-02-10T02:52:45;31.65;;;17.38;;
39404;SDS011;25121;51.090;17.038;2023-02-10T02:54:18;30.98;;;19.30;;
39404;SDS011;25121;51.090;17.038;2023-02-10T02:57:24;33.25;;;19.13;;
39404;SDS011;25121;51.090;17.038;2023-02-10T03:00:19;30.38;;;18.35;;
39404;SDS011;25121;51.090;17.038;2023-02-10T03:01:47;32.00;;;17.70;;
39404;SDS011;25121;51.090;17.038;2023-02-10T03:03:16;31.67;;;18.60;;
39404;SDS011;25121;51.090;17.038;2023-02-10T03:04:37;33.22;;;19.38;;
39404;SDS011;25121;51.090;17.038;2023-02-10T03:06:02;34.63;;;19.73;;
39404;SDS011;25121;51.090;17.038;2023-02-10T03:07:31;32.58;;;18.52;;
39404;SDS011;25121;51.090;17.038;2023-02-10T03:08:53;32.83;;;19.92;;
39404;SDS011;25121;51.090;17.038;2023-02-10T03:10:15;36.97;;;20.73;;
39404;SDS011;25121;51.090;17.038;2023-02-10T03:11:37;30.10;;;18.05;;
39404;SDS011;25121;51.090;17.038;2023-02-10T03:13:07;36.22;;;20.13;;
39404;SDS011;25121;51.090;17.038;2023-02-10T03:14:29;37.13;;;20.38;;
39404;SDS011;25121;51.090;17.038;2023-02-10T03:15:52;31.85;;;18.63;;
39404;SDS011;25121;51.090;17.038;2023-02-10T03:17:14;35.22;;;19.90;;
39404;SDS011;25121;51.090;17.038;2023-02-10T03:18:37;34.67;;;18.85;;
39404;SDS011;25121;51.090;17.038;2023-02-10T03:19:59;34.10;;;19.25;;
39404;SDS011;25121;51.090;17.038;2023-02-10T03:21:22;34.35;;;20.13;;
39404;SDS011;25121;51.090;17.038;2023-02-10T03:22:48;35.35;;;18.88;;
39404;SDS011;25121;51.090;17.038;2023-02-10T03:24:10;26.65;;;15.27;;
39404;SDS011;25121;51.090;17.038;2023-02-10T03:25:32;35.28;;;20.13;;
39404;SDS011;25121;51.090;17.038;2023-02-10T03:26:55;35.30;;;20.10;;
39404;SDS011;25121;51.090;17.038;2023-02-10T03:28:19;35.17;;;19.67;;
39404;SDS011;25121;51.090;17.038;2023-02-10T03:29:40;39.45;;;20.85;;
39404;SDS011;25121;51.090;17.038;2023-02-10T03:31:03;33.35;;;18.63;;
39404;SDS011;25121;51.090;17.038;2023-02-10T03:32:30;34.38;;;18.27;;
39404;SDS011;25121;51.090;17.038;2023-02-10T03:33:51;30.90;;;18.92;;
39404;SDS011;25121;51.090;17.038;2023-02-10T03:35:16;32.15;;;18.45;;
39404;SDS011;25121;51.090;17.038;2023-02-10T03:36:42;34.83;;;18.80;;
39404;SDS011;25121;51.090;17.038;2023-02-10T03:38:05;35.03;;;18.70;;
39404;SDS011;25121;51.090;17.038;2023-02-10T03:41:40;35.13;;;19.30;;
39404;SDS011;25121;51.090;17.038;2023-02-10T03:43:03;37.53;;;19.67;;
39404;SDS011;25121;51.090;17.038;2023-02-10T03:51:25;36.13;;;19.67;;
39404;SDS011;25121;51.090;17.038;2023-02-10T03:52:48;38.15;;;19.98;;
39404;SDS011;25121;51.090;17.038;2023-02-10T03:54:11;38.40;;;20.20;;
39404;SDS011;25121;51.090;17.038;2023-02-10T03:55:36;35.55;;;20.85;;
39404;SDS011;25121;51.090;17.038;2023-02-10T03:56:59;37.08;;;20.98;;
39404;SDS011;25121;51.090;17.038;2023-02-10T03:58:21;36.78;;;21.13;;
39404;SDS011;25121;51.090;17.038;2023-02-10T03:59:44;35.13;;;20.85;;
39404;SDS011;25121;51.090;17.038;2023-02-10T04:01:10;36.60;;;20.38;;
39404;SDS011;25121;51.090;17.038;2023-02-10T04:02:34;38.55;;;21.25;;
39404;SDS011;25121;51.090;17.038;2023-02-10T04:03:56;36.40;;;21.10;;
39404;SDS011;25121;51.090;17.038;2023-02-10T04:05:17;39.00;;;21.30;;
39404;SDS011;25121;51.090;17.038;2023-02-10T04:06:40;40.55;;;22.25;;
39404;SDS011;25121;51.090;17.038;2023-02-10T04:08:03;36.22;;;20.92;;
39404;SDS011;25121;51.090;17.038;2023-02-10T04:09:26;35.75;;;20.75;;
39404;SDS011;25121;51.090;17.038;2023-02-10T04:10:48;37.08;;;20.55;;
39404;SDS011;25121;51.090;17.038;2023-02-10T04:12:10;40.00;;;21.17;;
39404;SDS011;25121;51.090;17.038;2023-02-10T04:13:32;35.45;;;20.65;;
39404;SDS011;25121;51.090;17.038;2023-02-10T04:14:55;42.63;;;23.15;;
39404;SDS011;25121;51.090;17.038;2023-02-10T04:16:16;29.98;;;17.25;;
39404;SDS011;25121;51.090;17.038;2023-02-10T04:17:42;38.03;;;20.92;;
39404;SDS011;25121;51.090;17.038;2023-02-10T04:19:04;37.85;;;21.27;;
39404;SDS011;25121;51.090;17.038;2023-02-10T04:20:26;38.03;;;20.98;;
39404;SDS011;25121;51.090;17.038;2023-02-10T04:21:51;38.10;;;21.25;;
39404;SDS011;25121;51.090;17.038;2023-02-10T04:23:15;33.70;;;20.65;;
39404;SDS011;25121;51.090;17.038;2023-02-10T04:24:36;42.60;;;23.42;;
39404;SDS011;25121;51.090;17.038;2023-02-10T04:25:58;42.55;;;22.45;;
39404;SDS011;25121;51.090;17.038;2023-02-10T04:27:22;37.92;;;21.70;;
39404;SDS011;25121;51.090;17.038;2023-02-10T04:28:45;39.75;;;22.05;;
39404;SDS011;25121;51.090;17.038;2023-02-10T04:30:08;41.25;;;22.45;;
39404;SDS011;25121;51.090;17.038;2023-02-10T04:31:33;38.25;;;21.63;;
39404;SDS011;25121;51.090;17.038;2023-02-10T04:32:57;40.80;;;22.67;;
39404;SDS011;25121;51.090;17.038;2023-02-10T04:34:19;43.72;;;21.27;;
39404;SDS011;25121;51.090;17.038;2023-02-10T04:35:42;34.03;;;20.77;;
39404;SDS011;25121;51.090;17.038;2023-02-10T04:37:06;42.05;;;21.67;;
39404;SDS011;25121;51.090;17.038;2023-02-10T04:38:31;40.13;;;22.13;;
39404;SDS011;25121;51.090;17.038;2023-02-10T04:39:56;40.95;;;22.20;;
39404;SDS011;25121;51.090;17.038;2023-02-10T04:41:19;43.97;;;23.40;;
39404;SDS011;25121;51.090;17.038;2023-02-10T04:42:41;41.63;;;23.42;;
39404;SDS011;25121;51.090;17.038;2023-02-10T04:44:03;44.35;;;22.70;;
39404;SDS011;25121;51.090;17.038;2023-02-10T04:45:29;40.85;;;21.70;;
39404;SDS011;25121;51.090;17.038;2023-02-10T04:46:51;43.30;;;24.08;;
39404;SDS011;25121;51.090;17.038;2023-02-10T04:48:14;40.35;;;21.92;;
39404;SDS011;25121;51.090;17.038;2023-02-10T04:49:37;39.08;;;22.45;;
39404;SDS011;25121;51.090;17.038;2023-02-10T04:50:59;39.90;;;21.83;;
39404;SDS011;25121;51.090;17.038;2023-02-10T04:52:21;43.08;;;22.95;;
39404;SDS011;25121;51.090;17.038;2023-02-10T04:53:45;41.42;;;22.15;;
39404;SDS011;25121;51.090;17.038;2023-02-10T04:55:08;38.65;;;21.17;;
39404;SDS011;25121;51.090;17.038;2023-02-10T04:56:29;41.38;;;23.00;;
39404;SDS011;25121;51.090;17.038;2023-02-10T04:57:55;44.10;;;22.90;;
39404;SDS011;25121;51.090;17.038;2023-02-10T04:59:17;38.00;;;21.50;;
39404;SDS011;25121;51.090;17.038;2023-02-10T05:00:40;39.58;;;21.48;;
39404;SDS011;25121;51.090;17.038;2023-02-10T05:02:01;40.15;;;23.15;;
39404;SDS011;25121;51.090;17.038;2023-02-10T05:03:24;41.13;;;22.15;;
39404;SDS011;25121;51.090;17.038;2023-02-10T05:04:47;39.88;;;21.40;;
39404;SDS011;25121;51.090;17.038;2023-02-10T05:06:10;29.65;;;16.90;;
39404;SDS011;25121;51.090;17.038;2023-02-10T05:07:34;35.90;;;20.52;;
39404;SDS011;25121;51.090;17.038;2023-02-10T05:08:57;43.13;;;22.02;;
39404;SDS011;25121;51.090;17.038;2023-02-10T05:10:20;35.92;;;19.83;;
39404;SDS011;25121;51.090;17.038;2023-02-10T05:11:43;38.25;;;21.55;;
39404;SDS011;25121;51.090;17.038;2023-02-10T05:13:05;43.83;;;22.38;;
39404;SDS011;25121;51.090;17.038;2023-02-10T05:14:27;40.70;;;21.63;;
39404;SDS011;25121;51.090;17.038;2023-02-10T05:15:50;38.58;;;20.63;;
39404;SDS011;25121;51.090;17.038;2023-02-10T05:17:12;36.92;;;21.40;;
39404;SDS011;25121;51.090;17.038;2023-02-10T05:18:35;38.97;;;21.25;;
39404;SDS011;25121;51.090;17.038;2023-02-10T05:19:59;42.00;;;22.52;;
39404;SDS011;25121;51.090;17.038;2023-02-10T05:21:21;41.63;;;21.63;;
39404;SDS011;25121;51.090;17.038;2023-02-10T05:22:43;39.78;;;22.40;;
39404;SDS011;25121;51.090;17.038;2023-02-10T05:24:06;37.78;;;20.63;;
39404;SDS011;25121;51.090;17.038;2023-02-10T05:25:29;39.03;;;22.17;;
39404;SDS011;25121;51.090;17.038;2023-02-10T05:26:53;38.92;;;21.17;;
39404;SDS011;25121;51.090;17.038;2023-02-10T05:28:16;37.42;;;20.40;;
39404;SDS011;25121;51.090;17.038;2023-02-10T05:29:38;37.95;;;20.02;;
39404;SDS011;25121;51.090;17.038;2023-02-10T05:31:04;43.42;;;22.25;;
39404;SDS011;25121;51.090;17.038;2023-02-10T05:32:28;42.78;;;22.38;;
39404;SDS011;25121;51.090;17.038;2023-02-10T05:33:49;41.15;;;22.30;;
39404;SDS011;25121;51.090;17.038;2023-02-10T05:35:13;39.40;;;20.52;;
39404;SDS011;25121;51.090;17.038;2023-02-10T05:36:36;36.15;;;22.05;;
39404;SDS011;25121;51.090;17.038;2023-02-10T05:38:01;38.65;;;20.63;;
39404;SDS011;25121;51.090;17.038;2023-02-10T05:39:24;39.38;;;22.33;;
39404;SDS011;25121;51.090;17.038;2023-02-10T05:40:48;40.25;;;20.98;;
39404;SDS011;25121;51.090;17.038;2023-02-10T05:42:11;36.90;;;21.60;;
39404;SDS011;25121;51.090;17.038;2023-02-10T05:43:33;39.05;;;21.77;;
39404;SDS011;25121;51.090;17.038;2023-02-10T05:44:55;39.53;;;20.23;;
39404;SDS011;25121;51.090;17.038;2023-02-10T05:46:18;41.85;;;20.67;;
39404;SDS011;25121;51.090;17.038;2023-02-10T05:48:03;43.05;;;20.38;;
39404;SDS011;25121;51.090;17.038;2023-02-10T05:49:27;36.05;;;19.75;;
39404;SDS011;25121;51.090;17.038;2023-02-10T05:50:51;40.17;;;20.40;;
39404;SDS011;25121;51.090;17.038;2023-02-10T05:52:13;37.67;;;21.45;;
39404;SDS011;25121;51.090;17.038;2023-02-10T05:53:36;36.55;;;19.63;;
39404;SDS011;25121;51.090;17.038;2023-02-10T05:55:00;35.47;;;19.95;;
39404;SDS011;25121;51.090;17.038;2023-02-10T05:56:22;39.05;;;21.13;;
39404;SDS011;25121;51.090;17.038;2023-02-10T05:57:46;34.47;;;21.38;;
39404;SDS011;25121;51.090;17.038;2023-02-10T05:59:11;39.33;;;20.33;;
39404;SDS011;25121;51.090;17.038;2023-02-10T06:00:35;38.85;;;21.15;;
39404;SDS011;25121;51.090;17.038;2023-02-10T06:01:57;40.58;;;21.77;;
39404;SDS011;25121;51.090;17.038;2023-02-10T06:03:21;35.45;;;21.02;;
39404;SDS011;25121;51.090;17.038;2023-02-10T06:04:44;39.88;;;20.92;;
39404;SDS011;25121;51.090;17.038;2023-02-10T06:06:06;36.55;;;21.48;;
39404;SDS011;25121;51.090;17.038;2023-02-10T06:07:29;38.10;;;20.13;;
39404;SDS011;25121;51.090;17.038;2023-02-10T06:08:51;40.45;;;21.00;;
39404;SDS011;25121;51.090;17.038;2023-02-10T06:10:15;35.53;;;20.33;;
39404;SDS011;25121;51.090;17.038;2023-02-10T06:11:38;37.63;;;21.35;;
39404;SDS011;25121;51.090;17.038;2023-02-10T06:13:00;40.78;;;21.10;;
39404;SDS011;25121;51.090;17.038;2023-02-10T06:14:22;40.05;;;21.48;;
39404;SDS011;25121;51.090;17.038;2023-02-10T06:15:45;36.53;;;21.83;;
39404;SDS011;25121;51.090;17.038;2023-02-10T06:17:08;39.47;;;20.35;;
39404;SDS011;25121;51.090;17.038;2023-02-10T06:18:32;35.22;;;21.02;;
39404;SDS011;25121;51.090;17.038;2023-02-10T06:19:57;38.70;;;22.45;;
39404;SDS011;25121;51.090;17.038;2023-02-10T06:21:19;38.13;;;20.30;;
39404;SDS011;25121;51.090;17.038;2023-02-10T06:22:43;39.20;;;21.77;;
39404;SDS011;25121;51.090;17.038;2023-02-10T06:24:25;41.33;;;21.85;;
39404;SDS011;25121;51.090;17.038;2023-02-10T06:25:51;35.42;;;20.73;;
39404;SDS011;25121;51.090;17.038;2023-02-10T06:27:32;36.35;;;20.55;;
39404;SDS011;25121;51.090;17.038;2023-02-10T06:28:59;48.35;;;22.80;;
39404;SDS011;25121;51.090;17.038;2023-02-10T06:30:25;37.05;;;20.77;;
39404;SDS011;25121;51.090;17.038;2023-02-10T06:31:52;45.67;;;22.00;;
39404;SDS011;25121;51.090;17.038;2023-02-10T06:33:16;42.05;;;21.65;;
39404;SDS011;25121;51.090;17.038;2023-02-10T06:34:46;41.88;;;21.85;;
39404;SDS011;25121;51.090;17.038;2023-02-10T06:36:13;45.35;;;22.60;;
39404;SDS011;25121;51.090;17.038;2023-02-10T06:37:40;36.05;;;20.23;;
39404;SDS011;25121;51.090;17.038;2023-02-10T06:39:07;37.75;;;21.65;;
39404;SDS011;25121;51.090;17.038;2023-02-10T06:40:32;40.95;;;22.13;;
39404;SDS011;25121;51.090;17.038;2023-02-10T06:42:00;42.85;;;21.40;;
39404;SDS011;25121;51.090;17.038;2023-02-10T06:43:23;40.55;;;21.92;;
39404;SDS011;25121;51.090;17.038;2023-02-10T06:44:46;38.22;;;21.77;;
39404;SDS011;25121;51.090;17.038;2023-02-10T06:46:11;41.65;;;21.98;;
39404;SDS011;25121;51.090;17.038;2023-02-10T06:47:38;36.10;;;20.95;;
39404;SDS011;25121;51.090;17.038;2023-02-10T06:50:54;42.10;;;21.13;;
39404;SDS011;25121;51.090;17.038;2023-02-10T06:52:20;44.53;;;22.00;;
39404;SDS011;25121;51.090;17.038;2023-02-10T06:53:44;41.33;;;22.10;;
39404;SDS011;25121;51.090;17.038;2023-02-10T06:55:16;40.10;;;21.52;;
39404;SDS011;25121;51.090;17.038;2023-02-10T06:56:41;42.33;;;22.85;;
39404;SDS011;25121;51.090;17.038;2023-02-10T06:58:08;39.88;;;21.63;;
39404;SDS011;25121;51.090;17.038;2023-02-10T06:59:34;40.08;;;21.45;;
39404;SDS011;25121;51.090;17.038;2023-02-10T07:00:57;54.97;;;24.13;;
39404;SDS011;25121;51.090;17.038;2023-02-10T07:02:28;40.15;;;21.77;;
39404;SDS011;25121;51.090;17.038;2023-02-10T07:03:53;43.75;;;22.23;;
39404;SDS011;25121;51.090;17.038;2023-02-10T07:05:19;42.53;;;22.48;;
39404;SDS011;25121;51.090;17.038;2023-02-10T07:06:41;46.88;;;21.73;;
39404;SDS011;25121;51.090;17.038;2023-02-10T07:08:12;42.38;;;22.20;;
39404;SDS011;25121;51.090;17.038;2023-02-10T07:09:35;41.45;;;22.45;;
39404;SDS011;25121;51.090;17.038;2023-02-10T07:11:02;45.90;;;23.90;;
39404;SDS011;25121;51.090;17.038;2023-02-10T07:12:25;40.47;;;21.65;;
39404;SDS011;25121;51.090;17.038;2023-02-10T07:13:49;44.38;;;22.38;;
39404;SDS011;25121;51.090;17.038;2023-02-10T07:15:14;41.97;;;21.60;;
39404;SDS011;25121;51.090;17.038;2023-02-10T07:16:44;45.60;;;21.42;;
39404;SDS011;25121;51.090;17.038;2023-02-10T07:18:16;45.10;;;22.48;;
39404;SDS011;25121;51.090;17.038;2023-02-10T07:19:41;44.15;;;22.52;;
39404;SDS011;25121;51.090;17.038;2023-02-10T07:21:21;43.72;;;22.73;;
39404;SDS011;25121;51.090;17.038;2023-02-10T07:22:49;42.15;;;20.88;;
39404;SDS011;25121;51.090;17.038;2023-02-10T07:24:14;43.65;;;21.35;;
39404;SDS011;25121;51.090;17.038;2023-02-10T07:25:36;39.70;;;21.33;;
39404;SDS011;25121;51.090;17.038;2023-02-10T07:27:02;38.28;;;21.38;;
39404;SDS011;25121;51.090;17.038;2023-02-10T07:28:29;39.58;;;21.92;;
39404;SDS011;25121;51.090;17.038;2023-02-10T07:31:34;40.95;;;20.70;;
39404;SDS011;25121;51.090;17.038;2023-02-10T07:32:57;43.45;;;21.75;;
39404;SDS011;25121;51.090;17.038;2023-02-10T07:34:29;40.38;;;21.50;;
39404;SDS011;25121;51.090;17.038;2023-02-10T07:35:54;40.97;;;21.17;;
39404;SDS011;25121;51.090;17.038;2023-02-10T07:37:20;44.65;;;22.35;;
39404;SDS011;25121;51.090;17.038;2023-02-10T07:38:43;43.78;;;22.90;;
39404;SDS011;25121;51.090;17.038;2023-02-10T07:40:32;43.88;;;21.80;;
39404;SDS011;25121;51.090;17.038;2023-02-10T07:41:54;41.53;;;21.42;;
39404;SDS011;25121;51.090;17.038;2023-02-10T07:48:47;44.35;;;21.20;;
39404;SDS011;25121;51.090;17.038;2023-02-10T07:50:19;41.70;;;20.70;;
39404;SDS011;25121;51.090;17.038;2023-02-10T07:51:43;47.25;;;23.08;;
39404;SDS011;25121;51.090;17.038;2023-02-10T07:53:14;41.55;;;20.88;;
39404;SDS011;25121;51.090;17.038;2023-02-10T07:54:38;43.08;;;20.83;;
39404;SDS011;25121;51.090;17.038;2023-02-10T07:56:04;40.83;;;20.55;;
39404;SDS011;25121;51.090;17.038;2023-02-10T07:57:27;40.15;;;21.08;;
39404;SDS011;25121;51.090;17.038;2023-02-10T07:58:55;39.40;;;21.33;;
39404;SDS011;25121;51.090;17.038;2023-02-10T08:00:20;42.13;;;21.88;;
39404;SDS011;25121;51.090;17.038;2023-02-10T08:01:54;38.50;;;20.85;;
39404;SDS011;25121;51.090;17.038;2023-02-10T08:03:16;41.40;;;22.20;;
39404;SDS011;25121;51.090;17.038;2023-02-10T08:04:40;39.45;;;20.67;;
39404;SDS011;25121;51.090;17.038;2023-02-10T08:06:03;39.47;;;21.55;;
39404;SDS011;25121;51.090;17.038;2023-02-10T08:07:28;44.03;;;21.88;;
39404;SDS011;25121;51.090;17.038;2023-02-10T08:08:52;37.15;;;21.02;;
39404;SDS011;25121;51.090;17.038;2023-02-10T08:10:20;41.05;;;21.15;;
39404;SDS011;25121;51.090;17.038;2023-02-10T08:11:42;39.55;;;21.33;;
39404;SDS011;25121;51.090;17.038;2023-02-10T08:13:08;41.35;;;21.60;;
39404;SDS011;25121;51.090;17.038;2023-02-10T08:14:45;38.58;;;22.10;;
39404;SDS011;25121;51.090;17.038;2023-02-10T08:16:09;36.80;;;21.70;;
39404;SDS011;25121;51.090;17.038;2023-02-10T08:17:39;40.95;;;21.90;;
39404;SDS011;25121;51.090;17.038;2023-02-10T08:19:11;43.55;;;23.05;;
39404;SDS011;25121;51.090;17.038;2023-02-10T08:20:36;44.88;;;23.17;;
39404;SDS011;25121;51.090;17.038;2023-02-10T08:22:03;41.13;;;22.27;;
39404;SDS011;25121;51.090;17.038;2023-02-10T08:23:39;44.55;;;23.42;;
39404;SDS011;25121;51.090;17.038;2023-02-10T08:25:03;45.75;;;21.88;;
39404;SDS011;25121;51.090;17.038;2023-02-10T08:26:26;40.72;;;22.63;;
39404;SDS011;25121;51.090;17.038;2023-02-10T08:28:03;45.85;;;24.42;;
39404;SDS011;25121;51.090;17.038;2023-02-10T08:29:26;43.85;;;23.42;;
39404;SDS011;25121;51.090;17.038;2023-02-10T08:30:50;41.97;;;23.40;;
39404;SDS011;25121;51.090;17.038;2023-02-10T08:32:13;42.00;;;23.85;;
39404;SDS011;25121;51.090;17.038;2023-02-10T08:33:41;44.42;;;24.67;;
39404;SDS011;25121;51.090;17.038;2023-02-10T08:35:24;46.33;;;24.65;;
39404;SDS011;25121;51.090;17.038;2023-02-10T08:36:48;46.58;;;25.33;;
39404;SDS011;25121;51.090;17.038;2023-02-10T08:38:14;44.58;;;24.80;;
39404;SDS011;25121;51.090;17.038;2023-02-10T08:39:43;49.92;;;26.02;;
39404;SDS011;25121;51.090;17.038;2023-02-10T08:41:09;43.92;;;25.27;;
39404;SDS011;25121;51.090;17.038;2023-02-10T08:42:36;48.20;;;24.67;;
39404;SDS011;25121;51.090;17.038;2023-02-10T08:44:01;43.65;;;25.33;;